sensor_id;sensor_type;location;lat;lon;timestamp;pressure;altitude;pressure_sealevel;temperature;humidity
71621;BME280;59471;42.254;23.102;2022-12-07T15:36:57;95608.25;;;9.38;73.27
71621;BME280;59471;42.254;23.102;2022-12-07T15:39:22;95604.94;;;9.44;74.03
71621;BME280;59471;42.254;23.102;2022-12-07T15:41:48;95602.31;;;9.44;73.82
71621;BME280;59471;42.254;23.102;2022-12-07T15:44:13;95601.50;;;9.44;74.22
71621;BME280;59471;42.254;23.102;2022-12-07T15:46:58;95608.53;;;9.43;74.27
71621;BME280;59471;42.254;23.102;2022-12-07T15:49:23;95602.38;;;9.36;74.88
71621;BME280;59471;42.254;23.102;2022-12-07T15:51:48;95613.75;;;9.43;74.89
71621;BME280;59471;42.254;23.102;2022-12-07T15:54:24;95622.22;;;9.45;75.68
71621;BME280;59471;42.254;23.102;2022-12-07T15:56:50;95620.75;;;9.28;76.10
71621;BME280;59471;42.254;23.102;2022-12-07T15:59:15;95617.06;;;9.37;76.20
71621;BME280;59471;42.254;23.102;2022-12-07T16:01:41;95611.56;;;9.32;76.67
71621;BME280;59471;42.254;23.102;2022-12-07T16:04:06;95618.78;;;9.30;77.06
71621;BME280;59471;42.254;23.102;2022-12-07T16:06:32;95617.72;;;9.16;77.78
71621;BME280;59471;42.254;23.102;2022-12-07T16:08:57;95626.06;;;9.12;77.62
71621;BME280;59471;42.254;23.102;2022-12-07T16:11:22;95622.03;;;9.01;78.16
71621;BME280;59471;42.254;23.102;2022-12-07T16:13:48;95626.34;;;8.94;78.73
71621;BME280;59471;42.254;23.102;2022-12-07T16:16:14;95622.22;;;8.99;79.44
71621;BME280;59471;42.254;23.102;2022-12-07T16:18:39;95622.22;;;8.99;79.14
71621;BME280;59471;42.254;23.102;2022-12-07T16:23:09;95628.72;;;9.03;79.07
71621;BME280;59471;42.254;23.102;2022-12-07T16:25:34;95635.56;;;9.04;78.62
71621;BME280;59471;42.254;23.102;2022-12-07T16:27:59;95624.66;;;9.01;79.20
71621;BME280;59471;42.254;23.102;2022-12-07T16:30:25;95628.72;;;9.03;nan
71621;BME280;59471;42.254;23.102;2022-12-07T16:32:50;95639.31;;;9.10;78.82
71621;BME280;59471;42.254;23.102;2022-12-07T16:35:16;95634.94;;;9.02;78.89
71621;BME280;59471;42.254;23.102;2022-12-07T16:37:41;95637.56;;;9.02;79.09
71621;BME280;59471;42.254;23.102;2022-12-07T16:40:07;95641.34;;;8.92;79.69
71621;BME280;59471;42.254;23.102;2022-12-07T16:42:32;95636.63;;;8.95;79.67
71621;BME280;59471;42.254;23.102;2022-12-07T16:44:58;95636.31;;;8.90;80.26
71621;BME280;59471;42.254;23.102;2022-12-07T16:47:23;95637.78;;;8.93;79.65
71621;BME280;59471;42.254;23.102;2022-12-07T16:49:49;95638.06;;;8.98;79.74
71621;BME280;59471;42.254;23.102;2022-12-07T16:52:14;95642.31;;;8.99;80.03
71621;BME280;59471;42.254;23.102;2022-12-07T16:54:39;95641.47;;;8.98;79.40
71621;BME280;59471;42.254;23.102;2022-12-07T16:57:04;95653.00;;;8.89;79.80
71621;BME280;59471;42.254;23.102;2022-12-07T16:59:30;95650.72;;;8.86;81.38
71621;BME280;59471;42.254;23.102;2022-12-07T17:01:55;95648.00;;;9.02;79.97
71621;BME280;59471;42.254;23.102;2022-12-07T17:04:20;95650.31;;;8.97;80.15
71621;BME280;59471;42.254;23.102;2022-12-07T17:06:46;95654.59;;;8.90;79.78
71621;BME280;59471;42.254;23.102;2022-12-07T17:09:11;95660.72;;;8.74;80.90
71621;BME280;59471;42.254;23.102;2022-12-07T17:11:37;95657.91;;;8.84;80.28
71621;BME280;59471;42.254;23.102;2022-12-07T17:14:02;95659.50;;;8.93;79.94
71621;BME280;59471;42.254;23.102;2022-12-07T17:16:46;95668.13;;;8.94;79.62
71621;BME280;59471;42.254;23.102;2022-12-07T17:19:12;95660.75;;;8.97;79.23
71621;BME280;59471;42.254;23.102;2022-12-07T17:21:38;95662.38;;;8.98;79.43
71621;BME280;59471;42.254;23.102;2022-12-07T17:24:04;95661.41;;;8.99;79.47
71621;BME280;59471;42.254;23.102;2022-12-07T17:26:30;95667.44;;;9.00;79.68
71621;BME280;59471;42.254;23.102;2022-12-07T17:28:55;95664.97;;;9.07;79.09
71621;BME280;59471;42.254;23.102;2022-12-07T17:31:21;95669.25;;;8.99;79.35
71621;BME280;59471;42.254;23.102;2022-12-07T17:33:47;95671.72;;;8.93;79.88
71621;BME280;59471;42.254;23.102;2022-12-07T17:36:14;95671.41;;;8.96;79.77
71621;BME280;59471;42.254;23.102;2022-12-07T17:38:40;95665.97;;;8.97;78.63
71621;BME280;59471;42.254;23.102;2022-12-07T17:41:12;95667.97;;;8.95;79.24
71621;BME280;59471;42.254;23.102;2022-12-07T17:43:58;95671.56;;;8.94;79.23
71621;BME280;59471;42.254;23.102;2022-12-07T17:46:23;95675.50;;;8.90;78.98
71621;BME280;59471;42.254;23.102;2022-12-07T17:48:48;95669.47;;;8.90;79.18
71621;BME280;59471;42.254;23.102;2022-12-07T17:51:13;95673.88;;;8.89;78.81
71621;BME280;59471;42.254;23.102;2022-12-07T17:53:57;95675.03;;;8.87;79.63
71621;BME280;59471;42.254;23.102;2022-12-07T17:56:24;95673.25;;;8.79;79.48
71621;BME280;59471;42.254;23.102;2022-12-07T17:58:49;95676.19;;;8.76;79.86
71621;BME280;59471;42.254;23.102;2022-12-07T18:01:15;95674.91;;;8.80;79.59
71621;BME280;59471;42.254;23.102;2022-12-07T18:03:40;95672.91;;;8.82;80.03
71621;BME280;59471;42.254;23.102;2022-12-07T18:06:06;95666.06;;;8.81;79.48
71621;BME280;59471;42.254;23.102;2022-12-07T18:08:33;95679.50;;;8.70;80.60
71621;BME280;59471;42.254;23.102;2022-12-07T18:10:59;95677.53;;;8.72;80.06
71621;BME280;59471;42.254;23.102;2022-12-07T18:13:24;95670.34;;;8.74;79.94
71621;BME280;59471;42.254;23.102;2022-12-07T18:16:06;95674.94;;;8.64;81.07
71621;BME280;59471;42.254;23.102;2022-12-07T18:18:31;95678.88;;;8.59;81.80
71621;BME280;59471;42.254;23.102;2022-12-07T18:20:57;95678.25;;;8.57;82.13
71621;BME280;59471;42.254;23.102;2022-12-07T18:23:22;95672.88;;;8.51;81.92
71621;BME280;59471;42.254;23.102;2022-12-07T18:25:48;95677.88;;;8.61;81.43
71621;BME280;59471;42.254;23.102;2022-12-07T18:28:13;95682.69;;;8.49;81.78
71621;BME280;59471;42.254;23.102;2022-12-07T18:30:41;95672.09;;;8.34;81.66
71621;BME280;59471;42.254;23.102;2022-12-07T18:33:07;95673.75;;;8.19;80.46
71621;BME280;59471;42.254;23.102;2022-12-07T18:35:33;95672.00;;;7.86;79.23
71621;BME280;59471;42.254;23.102;2022-12-07T18:37:58;95671.84;;;7.72;79.84
71621;BME280;59471;42.254;23.102;2022-12-07T18:40:24;95670.88;;;7.56;79.76
71621;BME280;59471;42.254;23.102;2022-12-07T18:42:49;95666.31;;;7.50;80.00
71621;BME280;59471;42.254;23.102;2022-12-07T18:45:14;95670.88;;;7.40;80.75
71621;BME280;59471;42.254;23.102;2022-12-07T18:47:40;95677.72;;;7.33;81.17
71621;BME280;59471;42.254;23.102;2022-12-07T18:50:05;95676.06;;;7.24;81.94
71621;BME280;59471;42.254;23.102;2022-12-07T18:52:31;95680.63;;;7.30;81.67
71621;BME280;59471;42.254;23.102;2022-12-07T18:54:57;95671.03;;;7.38;80.98
71621;BME280;59471;42.254;23.102;2022-12-07T18:57:22;95673.50;;;7.48;80.02
71621;BME280;59471;42.254;23.102;2022-12-07T18:59:47;95675.91;;;7.50;79.26
71621;BME280;59471;42.254;23.102;2022-12-07T19:02:13;95673.78;;;7.37;79.40
71621;BME280;59471;42.254;23.102;2022-12-07T19:04:40;95679.34;;;7.26;79.10
71621;BME280;59471;42.254;23.102;2022-12-07T19:07:05;95670.97;;;6.97;80.76
71621;BME280;59471;42.254;23.102;2022-12-07T19:09:30;95670.53;;;7.27;80.10
71621;BME280;59471;42.254;23.102;2022-12-07T19:11:55;95673.75;;;7.12;81.20
71621;BME280;59471;42.254;23.102;2022-12-07T19:14:26;95679.31;;;7.34;79.83
71621;BME280;59471;42.254;23.102;2022-12-07T19:16:53;95677.00;;;6.98;81.27
71621;BME280;59471;42.254;23.102;2022-12-07T19:19:19;95668.09;;;6.66;83.32
71621;BME280;59471;42.254;23.102;2022-12-07T19:21:46;95673.94;;;6.60;83.91
71621;BME280;59471;42.254;23.102;2022-12-07T19:24:11;95674.16;;;6.75;84.78
71621;BME280;59471;42.254;23.102;2022-12-07T19:26:37;95679.56;;;6.90;83.03
71621;BME280;59471;42.254;23.102;2022-12-07T19:29:02;95674.53;;;6.96;82.50
71621;BME280;59471;42.254;23.102;2022-12-07T19:31:27;95673.88;;;6.94;82.80
71621;BME280;59471;42.254;23.102;2022-12-07T19:33:53;95676.19;;;6.55;83.76
71621;BME280;59471;42.254;23.102;2022-12-07T19:36:18;95668.41;;;6.63;83.97
71621;BME280;59471;42.254;23.102;2022-12-07T19:38:43;95673.69;;;6.80;85.04
71621;BME280;59471;42.254;23.102;2022-12-07T19:41:09;95682.13;;;6.73;85.29
71621;BME280;59471;42.254;23.102;2022-12-07T19:43:53;95679.88;;;6.87;84.01
71621;BME280;59471;42.254;23.102;2022-12-07T19:46:19;95687.16;;;7.26;81.67
71621;BME280;59471;42.254;23.102;2022-12-07T19:48:44;95690.53;;;6.67;83.63
71621;BME280;59471;42.254;23.102;2022-12-07T19:51:10;95689.59;;;6.68;83.18
71621;BME280;59471;42.254;23.102;2022-12-07T19:53:35;95697.41;;;6.68;82.98
71621;BME280;59471;42.254;23.102;2022-12-07T19:56:00;95697.53;;;6.67;82.54
71621;BME280;59471;42.254;23.102;2022-12-07T19:58:25;95694.13;;;6.66;81.44
71621;BME280;59471;42.254;23.102;2022-12-07T20:00:51;95700.81;;;6.77;80.41
71621;BME280;59471;42.254;23.102;2022-12-07T20:03:16;95695.72;;;6.59;79.75
71621;BME280;59471;42.254;23.102;2022-12-07T20:05:41;95702.75;;;6.33;80.56
71621;BME280;59471;42.254;23.102;2022-12-07T20:08:06;95697.84;;;6.30;81.63
71621;BME280;59471;42.254;23.102;2022-12-07T20:10:32;95694.19;;;6.14;82.33
71621;BME280;59471;42.254;23.102;2022-12-07T20:12:58;95704.47;;;5.98;81.98
71621;BME280;59471;42.254;23.102;2022-12-07T20:15:42;95706.75;;;5.93;83.40
71621;BME280;59471;42.254;23.102;2022-12-07T20:18:07;95708.63;;;5.91;82.68
71621;BME280;59471;42.254;23.102;2022-12-07T20:20:33;95704.94;;;5.75;83.06
71621;BME280;59471;42.254;23.102;2022-12-07T20:22:58;95718.59;;;5.95;82.16
71621;BME280;59471;42.254;23.102;2022-12-07T20:25:23;95719.66;;;6.11;81.63
71621;BME280;59471;42.254;23.102;2022-12-07T20:27:48;95717.56;;;5.70;82.71
71621;BME280;59471;42.254;23.102;2022-12-07T20:30:14;95711.03;;;5.66;82.68
71621;BME280;59471;42.254;23.102;2022-12-07T20:32:39;95718.31;;;5.80;81.07
71621;BME280;59471;42.254;23.102;2022-12-07T20:35:04;95713.09;;;5.80;81.35
71621;BME280;59471;42.254;23.102;2022-12-07T20:37:30;95720.81;;;5.72;81.71
71621;BME280;59471;42.254;23.102;2022-12-07T20:39:55;95724.56;;;5.52;82.96
71621;BME280;59471;42.254;23.102;2022-12-07T20:42:20;95718.09;;;5.38;83.36
71621;BME280;59471;42.254;23.102;2022-12-07T20:45:01;95726.69;;;5.56;82.32
71621;BME280;59471;42.254;23.102;2022-12-07T20:47:27;95729.88;;;5.32;83.22
71621;BME280;59471;42.254;23.102;2022-12-07T20:49:52;95725.28;;;5.26;83.80
71621;BME280;59471;42.254;23.102;2022-12-07T20:52:18;95729.88;;;5.32;83.46
71621;BME280;59471;42.254;23.102;2022-12-07T20:54:44;95729.00;;;5.42;83.46
71621;BME280;59471;42.254;23.102;2022-12-07T20:57:09;95736.78;;;5.60;83.09
71621;BME280;59471;42.254;23.102;2022-12-07T20:59:35;95733.59;;;5.48;82.00
71621;BME280;59471;42.254;23.102;2022-12-07T21:02:00;95730.78;;;5.23;82.64
71621;BME280;59471;42.254;23.102;2022-12-07T21:04:25;95726.03;;;5.37;83.69
71621;BME280;59471;42.254;23.102;2022-12-07T21:06:51;95722.91;;;5.15;84.18
71621;BME280;59471;42.254;23.102;2022-12-07T21:09:16;95726.94;;;5.27;83.54
71621;BME280;59471;42.254;23.102;2022-12-07T21:11:41;95717.66;;;5.25;82.43
71621;BME280;59471;42.254;23.102;2022-12-07T21:14:07;95727.63;;;5.02;83.78
71621;BME280;59471;42.254;23.102;2022-12-07T21:16:32;95733.13;;;4.71;84.87
71621;BME280;59471;42.254;23.102;2022-12-07T21:18:58;95742.03;;;4.59;85.82
71621;BME280;59471;42.254;23.102;2022-12-07T21:21:26;95740.13;;;4.88;84.49
71621;BME280;59471;42.254;23.102;2022-12-07T21:23:52;95737.84;;;4.85;85.05
71621;BME280;59471;42.254;23.102;2022-12-07T21:26:19;95751.06;;;5.10;84.13
71621;BME280;59471;42.254;23.102;2022-12-07T21:28:45;95749.16;;;5.12;83.53
71621;BME280;59471;42.254;23.102;2022-12-07T21:31:10;95753.59;;;5.02;84.89
71621;BME280;59471;42.254;23.102;2022-12-07T21:33:36;95742.63;;;5.08;84.73
71621;BME280;59471;42.254;23.102;2022-12-07T21:36:02;95749.38;;;5.19;84.01
71621;BME280;59471;42.254;23.102;2022-12-07T21:38:27;95753.47;;;5.21;83.69
71621;BME280;59471;42.254;23.102;2022-12-07T21:40:53;95751.59;;;5.14;84.65
71621;BME280;59471;42.254;23.102;2022-12-07T21:43:18;95755.09;;;5.04;85.63
71621;BME280;59471;42.254;23.102;2022-12-07T21:45:48;95752.22;;;4.98;85.52
71621;BME280;59471;42.254;23.102;2022-12-07T21:48:13;95749.63;;;4.98;85.59
71621;BME280;59471;42.254;23.102;2022-12-07T21:50:39;95754.00;;;5.25;84.48
71621;BME280;59471;42.254;23.102;2022-12-07T21:53:04;95753.88;;;4.99;85.28
71621;BME280;59471;42.254;23.102;2022-12-07T21:55:29;95750.50;;;5.16;83.57
71621;BME280;59471;42.254;23.102;2022-12-07T21:57:54;95741.38;;;4.84;85.24
71621;BME280;59471;42.254;23.102;2022-12-07T22:00:20;95750.66;;;4.87;85.52
71621;BME280;59471;42.254;23.102;2022-12-07T22:02:48;95746.16;;;5.07;84.36
71621;BME280;59471;42.254;23.102;2022-12-07T22:05:14;95753.66;;;4.92;83.09
71621;BME280;59471;42.254;23.102;2022-12-07T22:07:39;95749.78;;;4.96;82.56
71621;BME280;59471;42.254;23.102;2022-12-07T22:10:05;95751.56;;;4.68;83.60
71621;BME280;59471;42.254;23.102;2022-12-07T22:12:30;95747.50;;;4.56;84.90
71621;BME280;59471;42.254;23.102;2022-12-07T22:14:55;95753.88;;;4.99;83.03
71621;BME280;59471;42.254;23.102;2022-12-07T22:17:30;95757.00;;;4.75;85.52
71621;BME280;59471;42.254;23.102;2022-12-07T22:19:55;95758.78;;;4.74;84.92
71621;BME280;59471;42.254;23.102;2022-12-07T22:22:21;95756.19;;;4.74;85.20
71621;BME280;59471;42.254;23.102;2022-12-07T22:24:46;95748.34;;;4.84;84.43
71621;BME280;59471;42.254;23.102;2022-12-07T22:27:12;95743.22;;;5.02;83.68
71621;BME280;59471;42.254;23.102;2022-12-07T22:29:38;95747.47;;;4.65;84.53
71621;BME280;59471;42.254;23.102;2022-12-07T22:32:03;95743.16;;;4.47;85.50
71621;BME280;59471;42.254;23.102;2022-12-07T22:34:29;95737.34;;;4.72;84.77
71621;BME280;59471;42.254;23.102;2022-12-07T22:36:54;95741.34;;;4.57;85.47
71621;BME280;59471;42.254;23.102;2022-12-07T22:39:20;95741.19;;;4.68;86.05
71621;BME280;59471;42.254;23.102;2022-12-07T22:41:45;95743.38;;;4.63;86.06
71621;BME280;59471;42.254;23.102;2022-12-07T22:44:10;95735.03;;;4.97;84.20
71621;BME280;59471;42.254;23.102;2022-12-07T22:46:36;95738.59;;;4.96;84.28
71621;BME280;59471;42.254;23.102;2022-12-07T22:49:01;95734.56;;;4.83;84.33
71621;BME280;59471;42.254;23.102;2022-12-07T22:51:28;95744.53;;;4.78;84.58
71621;BME280;59471;42.254;23.102;2022-12-07T22:53:53;95739.94;;;5.00;83.98
71621;BME280;59471;42.254;23.102;2022-12-07T22:56:20;95734.34;;;4.95;84.35
71621;BME280;59471;42.254;23.102;2022-12-07T22:58:45;95734.94;;;4.61;85.06
71621;BME280;59471;42.254;23.102;2022-12-07T23:01:11;95731.63;;;4.69;84.96
71621;BME280;59471;42.254;23.102;2022-12-07T23:03:37;95738.28;;;4.44;85.34
71621;BME280;59471;42.254;23.102;2022-12-07T23:06:07;95731.06;;;4.37;84.79
71621;BME280;59471;42.254;23.102;2022-12-07T23:08:33;95733.19;;;4.52;85.35
71621;BME280;59471;42.254;23.102;2022-12-07T23:10:58;95735.31;;;4.38;84.67
71621;BME280;59471;42.254;23.102;2022-12-07T23:13:23;95732.59;;;4.30;86.28
71621;BME280;59471;42.254;23.102;2022-12-07T23:16:06;95736.94;;;4.39;85.31
71621;BME280;59471;42.254;23.102;2022-12-07T23:18:32;95734.63;;;4.36;85.34
71621;BME280;59471;42.254;23.102;2022-12-07T23:20:57;95737.78;;;4.30;86.13
71621;BME280;59471;42.254;23.102;2022-12-07T23:23:23;95735.91;;;4.13;87.12
71621;BME280;59471;42.254;23.102;2022-12-07T23:25:48;95739.03;;;4.16;86.87
71621;BME280;59471;42.254;23.102;2022-12-07T23:28:14;95731.66;;;4.22;88.48
71621;BME280;59471;42.254;23.102;2022-12-07T23:30:39;95733.09;;;4.44;88.63
71621;BME280;59471;42.254;23.102;2022-12-07T23:33:04;95736.66;;;4.43;88.25
71621;BME280;59471;42.254;23.102;2022-12-07T23:35:30;95738.38;;;4.52;88.54
71621;BME280;59471;42.254;23.102;2022-12-07T23:37:55;95733.22;;;4.79;88.39
71621;BME280;59471;42.254;23.102;2022-12-07T23:40:20;95738.03;;;5.02;87.99
71621;BME280;59471;42.254;23.102;2022-12-07T23:42:45;95738.13;;;4.82;87.85
71621;BME280;59471;42.254;23.102;2022-12-07T23:45:11;95737.22;;;5.01;88.31
71621;BME280;59471;42.254;23.102;2022-12-07T23:47:36;95739.59;;;5.13;87.74
71621;BME280;59471;42.254;23.102;2022-12-07T23:50:01;95746.09;;;5.17;85.96
71621;BME280;59471;42.254;23.102;2022-12-07T23:52:28;95735.66;;;4.81;87.63
71621;BME280;59471;42.254;23.102;2022-12-07T23:54:54;95742.56;;;4.62;88.84
71621;BME280;59471;42.254;23.102;2022-12-07T23:57:19;95749.06;;;4.76;87.61
71621;BME280;59471;42.254;23.102;2022-12-07T23:59:44;95743.03;;;4.48;87.71
